Time;durP1;ratioP1;P1;durP2;ratioP2;P2;SDS_P1;SDS_P2;PMS_P1;PMS_P2;Temp;Humidity;BMP_temperature;BMP_pressure;BME280_temperature;BME280_humidity;BME280_pressure;Samples;Min_cycle;Max_cycle;Signal;HPM_P1;HPM_P2
2023/06/26 00:00:58;;;;;;;12.07;10.98;;;22.00;99.90;;;;;;7377821;19;20681;-63
2023/06/26 00:03:25;;;;;;;11.73;10.52;;;22.00;99.90;;;;;;7374741;19;20495;-63
2023/06/26 00:05:51;;;;;;;11.50;10.40;;;22.00;99.90;;;;;;7375282;19;20053;-66
2023/06/26 00:08:17;;;;;;;14.43;11.25;;;22.00;99.90;;;;;;7372406;19;20014;-64
2023/06/26 00:10:43;;;;;;;11.55;10.50;;;22.00;99.90;;;;;;7369199;19;20049;-63
2023/06/26 00:13:12;;;;;;;12.20;11.00;;;21.90;99.90;;;;;;7376359;19;20019;-63
2023/06/26 00:15:39;;;;;;;12.27;11.05;;;21.90;99.90;;;;;;7375550;19;20029;-63
2023/06/26 00:18:05;;;;;;;12.65;11.45;;;21.90;99.90;;;;;;7367192;19;20018;-63
2023/06/26 00:20:33;;;;;;;12.88;11.23;;;21.90;99.90;;;;;;7358639;19;20018;-63
2023/06/26 00:23:00;;;;;;;13.43;12.10;;;21.90;99.90;;;;;;7370248;19;20015;-63
2023/06/26 00:25:26;;;;;;;13.52;12.15;;;21.80;99.90;;;;;;7371632;19;20370;-63
2023/06/26 00:27:52;;;;;;;13.40;11.57;;;21.80;99.90;;;;;;7374239;19;20019;-63
2023/06/26 00:30:19;;;;;;;13.50;12.20;;;21.80;99.90;;;;;;7376875;19;20489;-63
2023/06/26 00:32:46;;;;;;;13.00;11.60;;;21.80;99.90;;;;;;7376151;19;20592;-63
2023/06/26 00:35:12;;;;;;;12.80;11.18;;;21.70;99.90;;;;;;7377229;19;20018;-63
2023/06/26 00:37:39;;;;;;;12.93;11.73;;;21.80;99.90;;;;;;7374914;19;20019;-64
2023/06/26 00:40:05;;;;;;;13.82;12.52;;;21.70;99.90;;;;;;7375903;19;20022;-63
2023/06/26 00:42:32;;;;;;;13.10;11.73;;;21.70;99.90;;;;;;7375583;19;20030;-63
2023/06/26 00:44:59;;;;;;;12.85;11.75;;;21.70;99.90;;;;;;7375630;19;20037;-63
2023/06/26 00:47:25;;;;;;;13.82;12.43;;;21.60;99.90;;;;;;7374873;19;20515;-63
2023/06/26 00:49:52;;;;;;;13.50;12.20;;;21.60;99.90;;;;;;7373045;19;20023;-63
2023/06/26 00:52:23;;;;;;;13.48;12.20;;;21.50;99.90;;;;;;7373793;19;20370;-64
2023/06/26 00:54:51;;;;;;;13.32;12.13;;;21.60;99.90;;;;;;7372596;19;20030;-63
2023/06/26 00:57:21;;;;;;;12.85;11.60;;;21.50;99.90;;;;;;7374549;19;20018;-63
2023/06/26 00:59:49;;;;;;;14.00;12.65;;;21.50;99.90;;;;;;7374552;19;20018;-64
2023/06/26 01:02:19;;;;;;;12.75;11.55;;;21.40;99.90;;;;;;7370075;19;20023;-65
2023/06/26 01:04:55;;;;;;;13.13;11.77;;;21.40;99.90;;;;;;7373914;19;20022;-65
2023/06/26 01:07:22;;;;;;;13.65;12.35;;;21.40;99.90;;;;;;7370964;19;20081;-64
2023/06/26 01:09:49;;;;;;;13.13;11.85;;;21.30;99.90;;;;;;7368264;19;20469;-64
2023/06/26 01:12:15;;;;;;;14.98;13.50;;;21.30;99.90;;;;;;7375355;19;20898;-63
2023/06/26 01:14:42;;;;;;;13.20;11.93;;;21.30;99.90;;;;;;7372176;19;20047;-66
2023/06/26 01:17:14;;;;;;;12.90;11.80;;;21.30;99.90;;;;;;7376058;19;20014;-66
2023/06/26 01:19:42;;;;;;;14.57;13.07;;;21.30;99.90;;;;;;7372612;19;20487;-66
2023/06/26 01:22:17;;;;;;;13.65;12.35;;;21.30;99.90;;;;;;7372738;19;20485;-66
2023/06/26 01:25:08;;;;;;;13.73;12.43;;;21.20;99.90;;;;;;7373370;19;20018;-66
2023/06/26 01:27:36;;;;;;;14.65;13.25;;;21.20;99.90;;;;;;7374743;19;20026;-66
2023/06/26 01:30:04;;;;;;;13.20;12.02;;;21.20;99.90;;;;;;7374732;19;20497;-64
2023/06/26 01:32:32;;;;;;;13.40;12.20;;;21.10;99.90;;;;;;7365713;19;20045;-62
2023/06/26 01:35:00;;;;;;;13.27;12.00;;;21.00;99.90;;;;;;7375677;19;20014;-63
2023/06/26 01:37:30;;;;;;;14.52;13.30;;;21.00;99.90;;;;;;7374482;19;20021;-63
2023/06/26 01:39:56;;;;;;;14.50;13.10;;;20.90;99.90;;;;;;7372305;19;21343;-63
2023/06/26 01:42:22;;;;;;;15.77;14.27;;;20.80;99.90;;;;;;7370096;19;20808;-65
2023/06/26 01:44:52;;;;;;;16.20;14.57;;;20.80;99.90;;;;;;7371760;19;20695;-65
2023/06/26 01:47:26;;;;;;;15.00;13.70;;;20.70;99.90;;;;;;7376522;19;20029;-62
2023/06/26 01:50:02;;;;;;;14.40;13.00;;;20.60;99.90;;;;;;7372660;19;20409;-63
2023/06/26 01:52:45;;;;;;;14.48;13.07;;;20.60;99.90;;;;;;7375418;19;20468;-65
2023/06/26 01:55:40;;;;;;;15.43;13.95;;;20.70;99.90;;;;;;7373474;19;20015;-65
2023/06/26 01:58:06;;;;;;;15.23;13.82;;;20.70;99.90;;;;;;7373651;19;20015;-65
2023/06/26 02:00:33;;;;;;;15.52;14.10;;;20.70;99.90;;;;;;7370493;19;20034;-63
2023/06/26 02:03:00;;;;;;;16.13;14.65;;;20.70;99.90;;;;;;7374790;19;20583;-62
2023/06/26 02:05:26;;;;;;;15.52;14.20;;;20.70;99.90;;;;;;7364072;19;20035;-63
2023/06/26 02:07:52;;;;;;;16.15;14.77;;;20.70;99.90;;;;;;7371952;19;20478;-65
2023/06/26 02:10:21;;;;;;;15.73;14.13;;;20.60;99.90;;;;;;7373646;19;20353;-63
2023/06/26 02:12:48;;;;;;;15.48;14.00;;;20.70;99.90;;;;;;7371967;19;20015;-65
2023/06/26 02:15:15;;;;;;;15.88;14.38;;;20.60;99.90;;;;;;7371870;19;20600;-62
2023/06/26 02:17:41;;;;;;;16.27;14.88;;;20.60;99.90;;;;;;7371075;19;20025;-65
2023/06/26 02:20:10;;;;;;;15.80;14.20;;;20.50;99.90;;;;;;7371675;19;20405;-66
2023/06/26 02:22:36;;;;;;;16.13;14.73;;;20.50;99.90;;;;;;7368811;19;20019;-65
2023/06/26 02:25:02;;;;;;;15.80;14.35;;;20.40;99.90;;;;;;7368923;19;20031;-66
2023/06/26 02:27:29;;;;;;;16.75;15.25;;;20.40;99.90;;;;;;7371052;19;20018;-66
2023/06/26 02:29:55;;;;;;;16.15;14.75;;;20.30;99.90;;;;;;7373696;19;21128;-67
2023/06/26 02:32:21;;;;;;;15.85;14.45;;;20.20;99.90;;;;;;7372457;19;20018;-66
2023/06/26 02:34:51;;;;;;;15.20;13.80;;;20.20;99.90;;;;;;7370082;19;20722;-66
2023/06/26 02:37:18;;;;;;;15.48;14.05;;;20.20;99.90;;;;;;7372354;19;20477;-66
2023/06/26 02:39:45;;;;;;;16.48;14.77;;;20.10;99.90;;;;;;7372406;19;20015;-66
2023/06/26 02:42:12;;;;;;;15.73;14.32;;;20.10;99.90;;;;;;7373343;19;20029;-66
2023/06/26 02:44:38;;;;;;;16.05;14.48;;;20.10;99.90;;;;;;7365584;19;20041;-66
2023/06/26 02:47:04;;;;;;;17.05;15.38;;;20.10;99.90;;;;;;7370963;19;20058;-66
2023/06/26 02:49:31;;;;;;;17.40;15.80;;;20.10;99.90;;;;;;7370053;19;20029;-65
2023/06/26 02:51:57;;;;;;;16.30;14.90;;;20.10;99.90;;;;;;7373075;19;20014;-65
2023/06/26 02:54:27;;;;;;;16.50;15.10;;;20.10;99.90;;;;;;7367531;19;20551;-65
2023/06/26 02:56:59;;;;;;;16.80;15.13;;;20.10;99.90;;;;;;7372420;19;20448;-65
2023/06/26 02:59:28;;;;;;;16.50;14.97;;;20.10;99.90;;;;;;7372346;19;20028;-65
2023/06/26 03:01:56;;;;;;;16.77;15.27;;;20.10;99.90;;;;;;7372937;19;20045;-66
2023/06/26 03:04:29;;;;;;;16.42;14.93;;;20.00;99.90;;;;;;7368260;19;20086;-64
2023/06/26 03:06:55;;;;;;;16.10;14.70;;;20.00;99.90;;;;;;7374007;19;20062;-64
2023/06/26 03:09:21;;;;;;;16.63;15.23;;;20.00;99.90;;;;;;7370907;19;20587;-65
2023/06/26 03:11:49;;;;;;;17.83;16.23;;;20.00;99.90;;;;;;7371064;19;20377;-64
2023/06/26 03:14:16;;;;;;;17.65;15.98;;;20.00;99.90;;;;;;7369232;19;20513;-64
2023/06/26 03:16:42;;;;;;;18.30;16.75;;;20.00;99.90;;;;;;7372771;19;20057;-65
2023/06/26 03:19:08;;;;;;;20.17;16.92;;;20.00;99.90;;;;;;7370554;19;20580;-65
2023/06/26 03:21:55;;;;;;;19.85;17.98;;;20.00;99.90;;;;;;7370941;19;20504;-65
2023/06/26 03:24:21;;;;;;;18.90;17.25;;;20.00;99.90;;;;;;7369344;19;20045;-65
2023/06/26 03:26:47;;;;;;;19.33;17.60;;;20.00;99.90;;;;;;7367836;19;20019;-65
2023/06/26 03:29:16;;;;;;;19.25;17.50;;;20.00;99.90;;;;;;7367554;19;20039;-64
2023/06/26 03:31:43;;;;;;;18.00;16.35;;;20.10;99.90;;;;;;7371401;19;20045;-65
2023/06/26 03:34:09;;;;;;;18.08;16.27;;;20.10;99.90;;;;;;7370512;19;20078;-66
2023/06/26 03:36:36;;;;;;;19.08;17.38;;;20.10;99.90;;;;;;7368344;19;20054;-64
2023/06/26 03:39:04;;;;;;;18.80;17.02;;;20.20;99.90;;;;;;7372441;19;20023;-65
2023/06/26 03:41:30;;;;;;;17.05;15.32;;;20.20;99.90;;;;;;7368758;19;20040;-65
2023/06/26 03:43:56;;;;;;;17.83;16.13;;;20.30;99.90;;;;;;7365828;19;20019;-66
2023/06/26 03:46:29;;;;;;;17.58;15.90;;;20.30;99.90;;;;;;7365792;19;20351;-64
2023/06/26 03:48:56;;;;;;;17.67;15.88;;;20.40;99.90;;;;;;7371023;19;20036;-65
2023/06/26 03:51:23;;;;;;;16.13;14.68;;;20.50;99.90;;;;;;7366198;19;20014;-62
2023/06/26 03:53:49;;;;;;;15.18;13.77;;;20.60;99.90;;;;;;7367195;19;20097;-62
2023/06/26 03:56:15;;;;;;;15.32;13.75;;;20.60;99.90;;;;;;7365464;19;20019;-63
2023/06/26 03:58:43;;;;;;;14.68;13.00;;;20.70;99.90;;;;;;7369812;19;20045;-62
2023/06/26 04:01:10;;;;;;;14.32;12.15;;;20.80;99.90;;;;;;7364629;19;20396;-63
2023/06/26 04:03:37;;;;;;;13.32;11.93;;;20.80;99.90;;;;;;7365339;19;20595;-62
2023/06/26 04:06:03;;;;;;;14.40;12.02;;;20.90;99.90;;;;;;7368572;19;20018;-62
2023/06/26 04:08:29;;;;;;;13.50;12.00;;;20.90;99.90;;;;;;7366278;19;20014;-62
2023/06/26 04:10:57;;;;;;;13.60;12.15;;;21.00;99.90;;;;;;7366861;19;20045;-62
2023/06/26 04:13:23;;;;;;;13.30;12.02;;;21.10;99.90;;;;;;7365144;19;20018;-62
2023/06/26 04:15:49;;;;;;;12.60;11.10;;;21.10;99.90;;;;;;7368204;19;20019;-62
2023/06/26 04:18:16;;;;;;;13.75;10.55;;;21.20;99.90;;;;;;7373870;19;20026;-62
2023/06/26 04:21:05;;;;;;;11.35;10.15;;;21.20;99.90;;;;;;7376010;19;20030;-62
2023/06/26 04:23:32;;;;;;;12.52;10.93;;;21.30;99.90;;;;;;7374428;19;20038;-62
2023/06/26 04:25:59;;;;;;;12.02;10.82;;;21.20;99.90;;;;;;7365412;19;20019;-62
2023/06/26 04:28:25;;;;;;;11.93;10.73;;;21.30;99.90;;;;;;7375838;19;20026;-63
2023/06/26 04:30:51;;;;;;;15.50;10.25;;;21.20;99.90;;;;;;7377742;19;20373;-59
2023/06/26 04:33:17;;;;;;;12.07;10.30;;;21.30;99.90;;;;;;7382099;19;20346;-58
2023/06/26 04:35:49;;;;;;;13.23;9.98;;;21.30;99.90;;;;;;7374445;19;20023;-58
2023/06/26 04:38:15;;;;;;;12.38;10.38;;;21.30;99.90;;;;;;7373793;19;20473;-59
2023/06/26 04:40:42;;;;;;;12.70;10.43;;;21.30;99.90;;;;;;7375015;19;20491;-59
2023/06/26 04:43:09;;;;;;;11.95;9.90;;;21.30;99.90;;;;;;7379368;19;20396;-59
2023/06/26 04:45:35;;;;;;;11.05;9.85;;;21.40;99.90;;;;;;7376118;19;20035;-59
2023/06/26 04:48:02;;;;;;;13.15;9.95;;;21.50;99.90;;;;;;7378947;19;20061;-59
2023/06/26 04:50:28;;;;;;;15.65;10.20;;;21.50;99.90;;;;;;7377254;19;20057;-60
2023/06/26 04:52:55;;;;;;;14.98;9.43;;;21.50;99.90;;;;;;7382241;19;20023;-60
2023/06/26 04:55:24;;;;;;;11.38;9.52;;;21.70;99.90;;;;;;7375631;19;20520;-60
2023/06/26 04:57:51;;;;;;;15.25;9.25;;;21.80;99.90;;;;;;7377515;19;20033;-59
2023/06/26 05:00:17;;;;;;;17.33;9.73;;;21.80;99.90;;;;;;7375962;19;20025;-60
2023/06/26 05:02:44;;;;;;;13.27;9.73;;;21.80;99.90;;;;;;7376530;19;20023;-60
2023/06/26 05:05:11;;;;;;;16.83;9.95;;;21.80;99.90;;;;;;7376839;19;20022;-61
2023/06/26 05:07:38;;;;;;;16.83;8.93;;;21.80;99.90;;;;;;7377189;19;20029;-60
2023/06/26 05:10:05;;;;;;;11.23;8.75;;;21.80;99.90;;;;;;7375753;19;20037;-62
2023/06/26 05:12:31;;;;;;;18.40;10.38;;;21.90;99.90;;;;;;7374370;19;20026;-60
2023/06/26 05:14:57;;;;;;;18.80;10.00;;;21.80;99.90;;;;;;7368793;19;20029;-59
2023/06/26 05:17:23;;;;;;;14.60;10.38;;;21.80;99.90;;;;;;7376664;19;20038;-60
2023/06/26 05:19:49;;;;;;;14.73;9.73;;;21.70;99.90;;;;;;7373290;19;20022;-63
2023/06/26 05:22:17;;;;;;;18.15;9.93;;;21.60;99.90;;;;;;7376559;19;20065;-63
2023/06/26 05:24:46;;;;;;;17.23;9.02;;;21.70;99.90;;;;;;7367836;19;20014;-60
2023/06/26 05:27:20;;;;;;;16.13;9.07;;;21.60;99.90;;;;;;7375012;19;20022;-59
2023/06/26 05:29:50;;;;;;;15.88;9.20;;;21.70;99.90;;;;;;7377469;19;20485;-60
2023/06/26 05:32:20;;;;;;;18.52;9.85;;;21.70;99.90;;;;;;7375180;19;20018;-63
2023/06/26 05:34:49;;;;;;;13.73;9.27;;;21.70;99.90;;;;;;7373046;19;20122;-59
2023/06/26 05:37:20;;;;;;;15.52;8.82;;;21.90;99.90;;;;;;7369224;19;20050;-59
2023/06/26 05:39:46;;;;;;;15.57;8.65;;;21.90;99.90;;;;;;7370357;19;20011;-59
2023/06/26 05:42:16;;;;;;;17.00;8.57;;;22.00;99.90;;;;;;7372360;19;20015;-63
2023/06/26 05:44:42;;;;;;;15.07;9.00;;;22.20;99.90;;;;;;7370306;19;20018;-59
2023/06/26 05:47:09;;;;;;;14.68;8.75;;;22.10;99.90;;;;;;7366928;19;20082;-63
2023/06/26 05:49:35;;;;;;;15.80;8.63;;;21.90;99.90;;;;;;7371246;19;20022;-63
2023/06/26 05:52:02;;;;;;;13.70;7.88;;;21.60;99.90;;;;;;7371614;19;20017;-63
2023/06/26 05:54:28;;;;;;;11.98;8.07;;;21.50;99.90;;;;;;7372262;19;20019;-62
2023/06/26 05:56:59;;;;;;;18.77;9.02;;;21.40;99.90;;;;;;7375456;19;20021;-59
2023/06/26 05:59:26;;;;;;;12.85;7.65;;;21.40;99.90;;;;;;7376797;19;20018;-59
2023/06/26 06:01:53;;;;;;;15.38;7.85;;;21.30;99.90;;;;;;7375638;19;20423;-63
2023/06/26 06:04:19;;;;;;;15.45;7.32;;;21.40;99.90;;;;;;7376221;19;20026;-62
2023/06/26 06:06:46;;;;;;;12.88;7.43;;;21.40;99.90;;;;;;7375084;19;20018;-63
2023/06/26 06:09:12;;;;;;;11.10;7.72;;;21.50;99.90;;;;;;7373697;19;20085;-62
2023/06/26 06:11:38;;;;;;;11.90;7.30;;;21.50;99.90;;;;;;7372590;19;21105;-63
2023/06/26 06:14:04;;;;;;;16.35;6.80;;;21.50;99.90;;;;;;7373276;19;20011;-63
2023/06/26 06:16:31;;;;;;;10.15;5.05;;;21.60;99.90;;;;;;7372698;19;20022;-60
2023/06/26 06:18:57;;;;;;;11.93;5.72;;;21.50;99.90;;;;;;7376351;19;20074;-60
2023/06/26 06:21:23;;;;;;;11.45;4.55;;;21.60;99.90;;;;;;7370795;19;20014;-60
2023/06/26 06:23:49;;;;;;;10.50;3.90;;;21.80;99.90;;;;;;7372796;19;20042;-60
2023/06/26 06:26:16;;;;;;;9.88;3.75;;;21.60;99.90;;;;;;7374248;19;20572;-63
2023/06/26 06:28:42;;;;;;;8.68;3.08;;;21.80;99.90;;;;;;7373192;19;20015;-60
2023/06/26 06:31:08;;;;;;;6.90;3.60;;;22.10;99.90;;;;;;7370742;19;20660;-63
2023/06/26 06:33:34;;;;;;;7.75;3.30;;;22.20;99.90;;;;;;7373121;19;20018;-63
2023/06/26 06:36:00;;;;;;;9.30;3.67;;;22.20;99.90;;;;;;7370528;19;20026;-61
2023/06/26 06:38:27;;;;;;;7.10;2.90;;;22.40;99.90;;;;;;7375634;19;20062;-63
2023/06/26 06:40:53;;;;;;;8.18;3.08;;;22.50;99.90;;;;;;7372433;19;20026;-63
2023/06/26 06:43:20;;;;;;;7.43;3.17;;;22.90;99.90;;;;;;7373318;19;20014;-63
2023/06/26 06:45:46;;;;;;;8.90;2.80;;;23.20;99.90;;;;;;7362481;19;20019;-64
2023/06/26 06:48:12;;;;;;;4.75;2.67;;;23.50;99.90;;;;;;7366910;19;20023;-63
2023/06/26 06:50:38;;;;;;;7.47;2.70;;;23.50;99.90;;;;;;7365681;19;20577;-63
2023/06/26 06:53:04;;;;;;;6.47;2.60;;;23.70;99.90;;;;;;7374306;19;20682;-63
2023/06/26 06:55:31;;;;;;;6.47;2.60;;;24.00;99.90;;;;;;7370955;19;20102;-64
2023/06/26 06:57:57;;;;;;;5.95;2.40;;;24.00;99.90;;;;;;7373421;19;20014;-66
2023/06/26 07:00:23;;;;;;;6.18;2.00;;;23.50;99.90;;;;;;7370772;19;20436;-64
2023/06/26 07:02:49;;;;;;;6.55;1.70;;;23.60;99.90;;;;;;7373587;19;20029;-63
2023/06/26 07:05:16;;;;;;;7.55;2.35;;;23.40;99.90;;;;;;7371837;19;20022;-63
2023/06/26 07:07:42;;;;;;;7.70;2.58;;;23.40;99.90;;;;;;7370158;19;20018;-63
2023/06/26 07:10:11;;;;;;;9.20;3.17;;;23.20;99.90;;;;;;7370577;19;20326;-63
2023/06/26 07:12:38;;;;;;;7.78;2.35;;;23.10;99.90;;;;;;7373850;19;20014;-62
2023/06/26 07:15:05;;;;;;;7.40;2.67;;;22.80;99.90;;;;;;7374373;19;20022;-62
2023/06/26 07:17:32;;;;;;;8.10;2.70;;;23.10;99.90;;;;;;7369408;19;20014;-63
2023/06/26 07:20:00;;;;;;;8.10;2.50;;;23.50;99.90;;;;;;7374541;19;20050;-61
2023/06/26 07:22:27;;;;;;;5.30;2.13;;;23.90;99.90;;;;;;7373761;19;20029;-63
2023/06/26 07:24:53;;;;;;;6.28;2.92;;;24.20;99.90;;;;;;7371454;19;20018;-61
2023/06/26 07:27:20;;;;;;;6.75;2.25;;;24.30;99.90;;;;;;7372262;19;20140;-64
2023/06/26 07:29:46;;;;;;;11.55;2.88;;;24.60;99.90;;;;;;7375002;19;20018;-64
2023/06/26 07:32:13;;;;;;;4.25;1.95;;;24.60;99.90;;;;;;7372860;19;20465;-63
2023/06/26 07:34:39;;;;;;;5.60;2.17;;;24.70;99.90;;;;;;7371785;19;20035;-63
2023/06/26 07:37:05;;;;;;;7.93;5.20;;;25.20;99.90;;;;;;7371312;19;20040;-65
2023/06/26 07:39:32;;;;;;;5.20;2.40;;;25.50;99.90;;;;;;7364333;19;20018;-64
2023/06/26 07:41:59;;;;;;;5.57;2.03;;;25.40;99.90;;;;;;7366652;19;20061;-64
2023/06/26 07:44:26;;;;;;;6.10;2.28;;;25.50;99.90;;;;;;7369908;19;20557;-64
2023/06/26 07:46:52;;;;;;;5.97;2.50;;;25.30;99.90;;;;;;7364511;19;20014;-64
2023/06/26 07:49:22;;;;;;;5.30;1.92;;;25.80;99.90;;;;;;7364367;19;20073;-64
2023/06/26 07:51:51;;;;;;;3.90;1.52;;;26.10;99.90;;;;;;7377933;19;20018;-63
2023/06/26 07:54:17;;;;;;;3.00;1.33;;;26.40;99.90;;;;;;7382506;19;20023;-61
2023/06/26 07:56:56;;;;;;;4.25;1.75;;;26.20;99.90;;;;;;7375827;19;20018;-62
2023/06/26 07:59:23;;;;;;;4.43;1.60;;;25.60;99.40;;;;;;7375955;19;20014;-64
2023/06/26 08:01:54;;;;;;;4.05;1.92;;;25.50;99.90;;;;;;7377147;19;20026;-64
2023/06/26 08:04:23;;;;;;;7.60;1.83;;;25.10;98.70;;;;;;7375163;19;20018;-64
2023/06/26 08:06:51;;;;;;;4.97;1.63;;;25.50;99.40;;;;;;7376637;19;20862;-61
2023/06/26 08:09:19;;;;;;;4.07;1.90;;;25.50;99.30;;;;;;7377913;19;20073;-64
2023/06/26 08:11:46;;;;;;;4.97;1.77;;;25.70;98.10;;;;;;7376949;19;20021;-64
2023/06/26 08:14:13;;;;;;;8.35;1.80;;;25.90;97.70;;;;;;7381029;19;20022;-63
2023/06/26 08:16:40;;;;;;;6.53;1.58;;;25.70;97.40;;;;;;7377317;19;20121;-63
2023/06/26 08:19:07;;;;;;;5.00;1.67;;;25.80;97.60;;;;;;7375644;19;20021;-63
2023/06/26 08:21:34;;;;;;;7.65;5.10;;;25.60;96.80;;;;;;7375290;19;20018;-63
2023/06/26 08:24:03;;;;;;;3.45;1.38;;;26.20;97.60;;;;;;7374418;19;20445;-63
2023/06/26 08:26:29;;;;;;;3.22;1.33;;;25.90;96.10;;;;;;7377958;19;20022;-63
2023/06/26 08:28:55;;;;;;;5.10;1.40;;;25.80;96.50;;;;;;7377622;19;20014;-62
2023/06/26 08:31:22;;;;;;;2.47;1.30;;;25.60;96.70;;;;;;7377694;19;20588;-59
2023/06/26 08:33:50;;;;;;;5.53;1.35;;;25.50;96.70;;;;;;7379261;19;20014;-63
2023/06/26 08:36:17;;;;;;;4.72;1.58;;;25.70;96.80;;;;;;7379680;19;20387;-59
2023/06/26 08:38:43;;;;;;;6.03;1.75;;;25.90;97.20;;;;;;7377505;19;20038;-59
2023/06/26 08:41:09;;;;;;;4.93;1.60;;;26.00;96.30;;;;;;7374914;19;20054;-58
2023/06/26 08:43:36;;;;;;;5.30;1.92;;;26.00;96.00;;;;;;7379823;19;20018;-59
2023/06/26 08:46:03;;;;;;;6.65;4.20;;;25.50;96.30;;;;;;7377636;19;20018;-60
2023/06/26 08:48:36;;;;;;;4.80;2.00;;;25.30;97.20;;;;;;7378189;19;20020;-59
2023/06/26 08:51:11;;;;;;;4.25;1.65;;;25.50;97.00;;;;;;7375107;19;20018;-59
2023/06/26 08:53:52;;;;;;;5.63;1.85;;;25.00;97.40;;;;;;7380499;19;20059;-59
2023/06/26 08:56:21;;;;;;;7.65;1.90;;;24.70;97.70;;;;;;7380574;19;20025;-58
2023/06/26 08:58:51;;;;;;;9.77;1.90;;;25.10;98.10;;;;;;7376561;19;20733;-58
2023/06/26 09:01:18;;;;;;;4.72;1.88;;;25.50;98.70;;;;;;7375794;19;20034;-59
2023/06/26 09:03:45;;;;;;;5.28;2.33;;;25.20;97.90;;;;;;7371868;19;20018;-59
2023/06/26 09:06:11;;;;;;;9.00;2.25;;;25.20;98.30;;;;;;7376586;19;20019;-59
2023/06/26 09:08:37;;;;;;;6.57;2.28;;;25.70;98.20;;;;;;7372996;19;20034;-59
2023/06/26 09:11:03;;;;;;;5.68;2.05;;;25.80;97.90;;;;;;7375055;19;20374;-59
2023/06/26 09:13:30;;;;;;;6.10;2.10;;;26.60;97.60;;;;;;7376976;19;20100;-58
2023/06/26 09:15:57;;;;;;;5.18;2.28;;;25.90;96.50;;;;;;7375205;19;20056;-60
2023/06/26 09:18:24;;;;;;;6.72;2.30;;;25.80;97.40;;;;;;7373693;19;20022;-58
2023/06/26 09:20:50;;;;;;;4.32;2.00;;;25.10;97.40;;;;;;7373624;19;20129;-59
2023/06/26 09:23:17;;;;;;;5.03;2.10;;;25.30;97.50;;;;;;7376030;19;20507;-59
2023/06/26 09:25:44;;;;;;;5.47;2.08;;;26.00;97.80;;;;;;7371033;19;20019;-61
2023/06/26 09:28:10;;;;;;;6.25;2.25;;;26.30;97.40;;;;;;7376076;19;20011;-61
2023/06/26 09:30:37;;;;;;;8.90;2.40;;;26.20;96.90;;;;;;7378346;19;20482;-62
2023/06/26 09:33:23;;;;;;;6.07;2.45;;;26.70;96.10;;;;;;7375285;19;20014;-61
2023/06/26 09:35:49;;;;;;;6.15;2.40;;;26.70;95.20;;;;;;7372420;19;20025;-61
2023/06/26 09:38:17;;;;;;;5.57;2.50;;;27.00;94.70;;;;;;7369960;19;20795;-61
2023/06/26 09:40:46;;;;;;;;;;;27.30;94.60;;;;;;7378420;19;20019;-61
2023/06/26 09:43:13;;;;;;;11.10;2.92;;;26.70;93.60;;;;;;7377166;19;19918;-61
2023/06/26 09:45:40;;;;;;;5.30;2.10;;;26.80;93.50;;;;;;7372593;19;20110;-61
2023/06/26 09:48:12;;;;;;;6.40;2.13;;;27.00;92.10;;;;;;7373677;19;20029;-60
2023/06/26 09:50:42;;;;;;;7.10;2.30;;;26.70;90.60;;;;;;7375145;19;20022;-60
2023/06/26 09:53:09;;;;;;;5.50;1.77;;;26.70;89.10;;;;;;7377201;19;20022;-60
2023/06/26 09:55:36;;;;;;;3.97;2.17;;;27.10;90.50;;;;;;7374379;19;20018;-60
2023/06/26 09:58:03;;;;;;;6.32;2.42;;;27.40;90.00;;;;;;7375825;19;20082;-62
2023/06/26 10:00:33;;;;;;;7.68;2.10;;;27.40;86.80;;;;;;7370548;19;20022;-61
2023/06/26 10:03:00;;;;;;;6.70;2.33;;;26.70;85.20;;;;;;7373368;19;20022;-66
2023/06/26 10:05:27;;;;;;;4.07;1.88;;;26.30;84.50;;;;;;7373230;19;20487;-60
2023/06/26 10:07:55;;;;;;;5.75;1.90;;;26.90;84.50;;;;;;7375189;19;20018;-65
2023/06/26 10:10:24;;;;;;;5.75;1.88;;;26.50;82.60;;;;;;7372589;19;20033;-66
2023/06/26 10:12:59;;;;;;;5.97;1.98;;;26.90;82.80;;;;;;7369172;19;20122;-67
2023/06/26 10:15:27;;;;;;;6.18;2.15;;;27.40;80.70;;;;;;7370967;19;20489;-67
2023/06/26 10:17:56;;;;;;;3.70;2.00;;;27.00;81.60;;;;;;7367730;19;20037;-66
2023/06/26 10:20:22;;;;;;;5.00;1.60;;;27.30;82.90;;;;;;7374037;19;20083;-66
2023/06/26 10:22:49;;;;;;;4.22;1.95;;;27.20;80.10;;;;;;7372588;19;20018;-67
2023/06/26 10:25:21;;;;;;;5.18;1.90;;;26.80;77.60;;;;;;7372697;19;20026;-66
2023/06/26 10:27:54;;;;;;;5.00;1.92;;;27.10;76.50;;;;;;7369266;19;21138;-66
2023/06/26 10:30:29;;;;;;;6.00;2.20;;;27.00;75.00;;;;;;7371198;19;20047;-66
2023/06/26 10:32:56;;;;;;;8.43;2.83;;;27.10;73.60;;;;;;7372383;19;20014;-67
2023/06/26 10:35:24;;;;;;;4.97;2.17;;;27.60;74.50;;;;;;7375193;19;20460;-59
2023/06/26 10:37:50;;;;;;;5.72;2.35;;;27.10;74.40;;;;;;7371857;19;20022;-66
2023/06/26 10:40:28;;;;;;;5.78;2.20;;;25.90;76.00;;;;;;7371108;19;20026;-59
2023/06/26 10:43:08;;;;;;;3.83;1.88;;;25.30;77.10;;;;;;7372212;19;20014;-59
2023/06/26 10:45:36;;;;;;;4.72;1.95;;;25.10;78.80;;;;;;7369898;19;20041;-59
2023/06/26 10:48:04;;;;;;;5.85;2.33;;;25.20;80.80;;;;;;7364121;19;20022;-60
2023/06/26 10:50:32;;;;;;;5.50;2.10;;;25.40;81.30;;;;;;7373957;19;20092;-59
2023/06/26 10:53:25;;;;;;;7.03;2.83;;;26.10;82.00;;;;;;7375783;19;20494;-59
2023/06/26 10:56:01;;;;;;;4.88;2.15;;;27.00;80.70;;;;;;7373876;19;20767;-60
2023/06/26 10:58:30;;;;;;;5.28;1.80;;;26.60;79.90;;;;;;7374237;19;20028;-59
2023/06/26 11:01:15;;;;;;;3.65;1.65;;;26.70;76.80;;;;;;7371427;19;20477;-59
2023/06/26 11:03:44;;;;;;;3.00;1.30;;;27.00;74.00;;;;;;7371775;19;21542;-59
2023/06/26 11:06:20;;;;;;;6.32;2.05;;;26.80;71.10;;;;;;7375485;19;20018;-59
2023/06/26 11:08:50;;;;;;;3.92;1.92;;;27.00;70.10;;;;;;7372420;19;20349;-67
2023/06/26 11:11:17;;;;;;;7.90;1.88;;;27.70;71.00;;;;;;7369313;19;20014;-59
2023/06/26 11:13:45;;;;;;;4.05;1.80;;;27.30;69.10;;;;;;7372547;19;20035;-59
2023/06/26 11:16:13;;;;;;;3.70;1.85;;;26.80;70.10;;;;;;7365771;19;20035;-67
2023/06/26 11:18:39;;;;;;;5.15;1.50;;;26.30;70.50;;;;;;7371816;19;20102;-64
2023/06/26 11:21:11;;;;;;;6.32;1.92;;;25.90;70.70;;;;;;7367926;19;20723;-66
2023/06/26 11:23:37;;;;;;;3.63;1.65;;;25.70;70.20;;;;;;7377221;19;20030;-66
2023/06/26 11:26:17;;;;;;;5.05;1.85;;;26.00;71.00;;;;;;7373582;19;20042;-67
2023/06/26 11:28:57;;;;;;;37.25;33.58;;;26.50;71.60;;;;;;7378383;19;20022;-64
2023/06/26 11:31:33;;;;;;;8.85;3.17;;;26.80;66.20;;;;;;7373996;19;20015;-65
2023/06/26 11:34:02;;;;;;;5.10;2.00;;;27.20;66.10;;;;;;7376536;19;20597;-68
2023/06/26 11:36:29;;;;;;;5.55;2.63;;;27.10;67.00;;;;;;7380091;19;20044;-66
2023/06/26 11:38:57;;;;;;;4.65;1.75;;;27.80;68.10;;;;;;7380210;19;20138;-67
2023/06/26 11:41:25;;;;;;;4.93;2.60;;;27.20;67.40;;;;;;7380330;19;20026;-66
2023/06/26 11:43:55;;;;;;;8.40;2.05;;;28.00;67.90;;;;;;7375307;19;20093;-67
2023/06/26 11:46:22;;;;;;;37.45;33.97;;;28.40;66.00;;;;;;7380861;19;20749;-65
2023/06/26 11:48:49;;;;;;;11.43;9.40;;;28.70;65.30;;;;;;7378540;19;20034;-64
2023/06/26 11:51:16;;;;;;;13.05;9.20;;;28.00;64.80;;;;;;7380194;19;20438;-65
2023/06/26 11:53:44;;;;;;;9.60;3.28;;;28.10;65.20;;;;;;7379940;19;20022;-65
2023/06/26 11:56:12;;;;;;;7.68;3.53;;;27.30;63.50;;;;;;7382629;19;20025;-65
2023/06/26 11:58:57;;;;;;;5.97;2.42;;;27.70;64.40;;;;;;7378333;19;20014;-65
2023/06/26 12:01:25;;;;;;;5.93;2.13;;;28.20;65.20;;;;;;7378560;19;20029;-66
2023/06/26 12:04:01;;;;;;;4.57;1.65;;;28.40;62.40;;;;;;7375979;19;20461;-65
2023/06/26 12:06:28;;;;;;;7.32;2.22;;;28.70;59.70;;;;;;7377873;19;20049;-66
2023/06/26 12:08:55;;;;;;;7.85;2.13;;;28.10;59.40;;;;;;7378779;19;20010;-65
2023/06/26 12:11:24;;;;;;;6.40;1.40;;;28.10;59.30;;;;;;7376068;19;20015;-65
2023/06/26 12:13:51;;;;;;;6.78;2.03;;;28.10;60.00;;;;;;7377963;19;20025;-64
2023/06/26 12:16:21;;;;;;;4.22;1.63;;;27.80;60.80;;;;;;7379190;19;20130;-64
2023/06/26 12:18:47;;;;;;;4.65;1.25;;;27.40;62.20;;;;;;7378344;19;20007;-65
2023/06/26 12:21:38;;;;;;;6.60;1.50;;;27.50;62.60;;;;;;7377515;19;20400;-65
2023/06/26 12:24:05;;;;;;;5.40;1.88;;;27.20;64.00;;;;;;7381374;19;20026;-65
2023/06/26 12:26:41;;;;;;;10.82;2.15;;;26.90;63.80;;;;;;7373705;19;20572;-65
2023/06/26 12:29:11;;;;;;;5.78;1.90;;;26.50;66.00;;;;;;7380192;19;20041;-65
2023/06/26 12:31:44;;;;;;;5.75;1.40;;;27.00;66.20;;;;;;7376549;19;20564;-65
2023/06/26 12:34:13;;;;;;;8.38;1.50;;;26.70;66.00;;;;;;7373905;19;20031;-64
2023/06/26 12:36:41;;;;;;;7.63;1.58;;;27.00;65.90;;;;;;7379527;19;20015;-66
2023/06/26 12:39:10;;;;;;;8.40;2.08;;;27.30;65.40;;;;;;7375248;19;20029;-65
2023/06/26 12:42:04;;;;;;;9.77;2.17;;;27.40;64.60;;;;;;7374222;19;20031;-64
2023/06/26 12:44:32;;;;;;;17.05;10.77;;;26.80;63.80;;;;;;7379174;19;20006;-64